createdAt,value
2023-03-05T00:01:45.248Z,23.46
2023-03-05T00:04:17.008Z,23.47
2023-03-05T00:06:47.388Z,23.45
2023-03-05T00:09:17.599Z,23.39
2023-03-05T00:11:47.450Z,23.39
2023-03-05T00:14:17.406Z,23.26
2023-03-05T00:16:47.741Z,23.24
2023-03-05T00:19:17.662Z,23.29
2023-03-05T00:21:47.353Z,23.33
2023-03-05T00:24:19.817Z,23.31
2023-03-05T00:26:51.188Z,23.31
2023-03-05T00:29:25.798Z,23.39
2023-03-05T00:31:56.735Z,23.42
2023-03-05T00:34:29.359Z,23.42
2023-03-05T00:36:59.834Z,23.24
2023-03-05T00:39:30.308Z,23.24
2023-03-05T00:42:00.732Z,23.19
2023-03-05T00:44:31.050Z,23.17
2023-03-05T00:47:01.181Z,23.24
2023-03-05T00:49:31.050Z,23.29
2023-03-05T00:52:01.067Z,23.29
2023-03-05T00:54:31.185Z,23.31
2023-03-05T00:57:01.304Z,23.34
2023-03-05T00:59:31.476Z,23.34
2023-03-05T01:02:01.154Z,23.40
2023-03-05T01:04:32.274Z,23.22
2023-03-05T01:07:02.323Z,23.20
2023-03-05T01:09:32.541Z,23.20
2023-03-05T01:12:02.834Z,23.19
2023-03-05T01:14:33.622Z,23.24
2023-03-05T01:17:04.110Z,23.10
2023-03-05T01:19:34.179Z,23.12
2023-03-05T01:22:04.387Z,23.02
2023-03-05T01:24:34.340Z,22.96
2023-03-05T01:27:04.401Z,22.82
2023-03-05T01:29:34.049Z,22.75
2023-03-05T01:32:05.025Z,22.75
2023-03-05T01:34:35.175Z,22.69
2023-03-05T01:37:05.196Z,22.67
2023-03-05T01:39:34.861Z,22.72
2023-03-05T01:42:05.534Z,22.71
2023-03-05T01:44:36.388Z,22.64
2023-03-05T01:47:06.587Z,22.64
2023-03-05T01:49:40.327Z,22.72
2023-03-05T01:52:18.749Z,22.68
2023-03-05T01:55:15.598Z,22.72
2023-03-05T01:58:01.085Z,22.52
2023-03-05T02:00:41.125Z,22.54
2023-03-05T02:03:13.867Z,22.58
2023-03-05T02:05:45.624Z,22.54
2023-03-05T02:08:18.569Z,22.48
2023-03-05T02:10:51.830Z,22.48
2023-03-05T02:13:24.852Z,22.64
2023-03-05T02:15:56.324Z,22.71
2023-03-05T02:18:26.484Z,22.68
2023-03-05T02:20:59.562Z,22.51
2023-03-05T02:23:34.898Z,22.48
2023-03-05T02:26:11.179Z,22.51
2023-03-05T02:28:48.151Z,22.43
2023-03-05T02:31:21.396Z,22.43
2023-03-05T02:33:52.465Z,22.43
2023-03-05T02:36:24.431Z,22.49
2023-03-05T02:38:58.314Z,22.58
2023-03-05T02:41:29.274Z,22.57
2023-03-05T02:44:02.344Z,22.45
2023-03-05T02:46:32.452Z,22.44
2023-03-05T02:49:02.579Z,22.43
2023-03-05T02:51:32.761Z,22.45
2023-03-05T02:54:03.255Z,22.54
2023-03-05T02:56:33.462Z,22.57
2023-03-05T02:59:04.462Z,22.47
2023-03-05T03:01:34.093Z,22.49
2023-03-05T03:04:04.400Z,22.51
2023-03-05T03:06:33.953Z,22.57
2023-03-05T03:09:04.346Z,22.55
2023-03-05T03:11:34.443Z,22.51
2023-03-05T03:14:04.530Z,22.48
2023-03-05T03:16:35.835Z,22.45
2023-03-05T03:19:06.893Z,22.47
2023-03-05T03:21:37.027Z,22.47
2023-03-05T03:24:07.473Z,22.58
2023-03-05T03:26:37.615Z,22.62
2023-03-05T03:29:07.213Z,22.57
2023-03-05T03:31:36.964Z,22.62
2023-03-05T03:34:07.584Z,22.65
2023-03-05T03:36:37.987Z,22.59
2023-03-05T03:39:08.363Z,22.61
2023-03-05T03:41:42.077Z,22.62
2023-03-05T03:44:12.560Z,22.61
2023-03-05T03:46:43.049Z,22.59
2023-03-05T03:49:30.857Z,22.61
2023-03-05T03:52:01.054Z,22.61
2023-03-05T03:54:30.835Z,22.61
2023-03-05T03:57:00.787Z,22.55
2023-03-05T03:59:31.245Z,22.47
2023-03-05T04:02:01.121Z,22.44
2023-03-05T04:04:31.696Z,22.54
2023-03-05T04:07:01.804Z,22.48
2023-03-05T04:09:31.754Z,22.49
2023-03-05T04:12:02.165Z,22.48
2023-03-05T04:14:31.869Z,22.47
2023-03-05T04:17:01.940Z,22.47
2023-03-05T04:19:32.110Z,22.49
2023-03-05T04:22:01.618Z,22.49
2023-03-05T04:24:31.355Z,22.43
2023-03-05T04:27:01.329Z,22.48
2023-03-05T04:29:31.662Z,22.47
2023-03-05T04:32:02.167Z,22.51
2023-03-05T04:34:32.673Z,22.51
2023-03-05T04:37:02.095Z,22.51
2023-03-05T04:39:31.832Z,22.47
2023-03-05T04:42:01.703Z,22.45
2023-03-05T04:44:31.554Z,22.47
2023-03-05T04:47:01.362Z,22.49
2023-03-05T04:49:31.570Z,22.47
2023-03-05T04:52:01.214Z,22.47
2023-03-05T04:54:30.993Z,22.47
2023-03-05T04:57:01.143Z,22.48
2023-03-05T04:59:31.392Z,22.47
2023-03-05T05:02:01.509Z,22.48
2023-03-05T05:04:31.242Z,22.49
2023-03-05T05:07:01.513Z,22.48
2023-03-05T05:09:31.673Z,22.49
2023-03-05T05:12:01.253Z,22.49
2023-03-05T05:14:31.019Z,22.44
2023-03-05T05:17:01.668Z,22.43
2023-03-05T05:19:31.627Z,22.43
2023-03-05T05:22:01.915Z,22.43
2023-03-05T05:24:32.045Z,22.41
2023-03-05T05:27:02.203Z,22.37
2023-03-05T05:29:32.219Z,22.43
2023-03-05T05:32:02.328Z,22.47
2023-03-05T05:34:32.494Z,22.43
2023-03-05T05:37:02.901Z,22.38
2023-03-05T05:39:32.987Z,22.41
2023-03-05T05:42:03.396Z,22.41
2023-03-05T05:44:36.026Z,22.43
2023-03-05T05:47:06.147Z,22.44
2023-03-05T05:49:36.094Z,22.43
2023-03-05T05:52:06.621Z,22.43
2023-03-05T05:54:36.807Z,22.38
2023-03-05T05:57:06.829Z,22.40
2023-03-05T05:59:36.766Z,22.38
2023-03-05T06:02:07.462Z,22.31
2023-03-05T06:04:38.081Z,22.34
2023-03-05T06:07:08.898Z,22.31
2023-03-05T06:09:39.460Z,22.35
2023-03-05T06:12:09.950Z,22.34
2023-03-05T06:14:40.048Z,22.34
2023-03-05T06:17:12.726Z,22.28
2023-03-05T06:19:43.074Z,22.28
2023-03-05T06:22:13.695Z,22.27
2023-03-05T06:24:43.725Z,22.24
2023-03-05T06:27:13.576Z,22.21
2023-03-05T06:29:43.689Z,22.16
2023-03-05T06:32:13.580Z,22.11
2023-03-05T06:34:43.656Z,22.08
2023-03-05T06:37:13.817Z,22.06
2023-03-05T06:39:43.977Z,22.06
2023-03-05T06:42:13.676Z,22.03
2023-03-05T06:44:43.666Z,22.03
2023-03-05T06:47:13.897Z,22.06
2023-03-05T06:49:43.486Z,22.03
2023-03-05T06:52:14.156Z,22.03
2023-03-05T06:54:44.228Z,22.06
2023-03-05T06:57:14.894Z,22.04
2023-03-05T06:59:44.934Z,22.00
2023-03-05T07:02:15.404Z,22.01
2023-03-05T07:04:45.486Z,22.04
2023-03-05T07:07:15.770Z,22.06
2023-03-05T07:09:47.066Z,22.01
2023-03-05T07:12:17.127Z,22.00
2023-03-05T07:14:47.282Z,22.01
2023-03-05T07:17:17.537Z,22.01
2023-03-05T07:19:47.135Z,22.04
2023-03-05T07:22:17.592Z,22.06
2023-03-05T07:24:47.788Z,22.06
2023-03-05T07:27:17.401Z,22.04
2023-03-05T07:29:47.122Z,22.01
2023-03-05T07:32:17.197Z,22.01
2023-03-05T07:34:47.293Z,22.01
2023-03-05T07:37:17.796Z,22.06
2023-03-05T07:39:47.925Z,22.03
2023-03-05T07:42:18.088Z,22.04
2023-03-05T07:45:02.078Z,22.00
2023-03-05T07:47:32.241Z,21.98
2023-03-05T07:50:02.138Z,22.03
2023-03-05T07:52:32.156Z,22.10
2023-03-05T07:55:02.183Z,22.08
2023-03-05T07:57:32.388Z,22.08
2023-03-05T08:00:01.940Z,22.10
2023-03-05T08:02:43.846Z,22.10
2023-03-05T08:05:13.932Z,22.10
2023-03-05T08:07:44.058Z,22.07
2023-03-05T08:10:14.158Z,22.13
2023-03-05T08:12:44.195Z,22.07
2023-03-05T08:15:14.411Z,22.16
2023-03-05T08:17:44.502Z,22.18
2023-03-05T08:20:14.915Z,22.24
2023-03-05T08:22:45.030Z,22.24
2023-03-05T08:25:15.193Z,22.20
2023-03-05T08:27:47.278Z,22.20
2023-03-05T08:30:23.489Z,22.27
2023-03-05T08:32:54.375Z,22.31
2023-03-05T08:35:25.009Z,22.35
2023-03-05T08:37:55.478Z,22.30
2023-03-05T08:40:25.446Z,22.30
2023-03-05T08:42:55.464Z,22.28
2023-03-05T08:45:25.733Z,22.24
2023-03-05T08:47:58.472Z,22.17
2023-03-05T08:50:28.580Z,22.20
2023-03-05T08:52:58.958Z,22.20
2023-03-05T08:55:29.125Z,22.16
2023-03-05T08:57:59.178Z,22.10
2023-03-05T09:00:29.160Z,22.11
2023-03-05T09:02:59.286Z,22.04
2023-03-05T09:05:29.581Z,22.06
2023-03-05T09:08:00.774Z,22.10
2023-03-05T09:10:30.821Z,22.08
2023-03-05T09:13:00.676Z,22.03
2023-03-05T09:15:30.816Z,22.03
2023-03-05T09:18:00.955Z,22.08
2023-03-05T09:20:31.555Z,22.07
2023-03-05T09:23:01.661Z,22.10
2023-03-05T09:25:31.704Z,22.04
2023-03-05T09:28:01.536Z,22.10
2023-03-05T09:30:31.609Z,22.11
2023-03-05T09:33:01.496Z,22.10
2023-03-05T09:35:31.739Z,22.14
2023-03-05T09:38:01.658Z,22.16
2023-03-05T09:40:45.605Z,22.16
2023-03-05T09:43:30.864Z,22.17
2023-03-05T09:46:21.598Z,22.18
2023-03-05T09:48:54.334Z,22.18
2023-03-05T09:51:33.144Z,22.20
2023-03-05T09:54:04.840Z,22.24
2023-03-05T09:56:41.339Z,22.25
2023-03-05T09:59:46.167Z,22.31
2023-03-05T10:02:36.776Z,22.33
2023-03-05T10:05:44.733Z,22.37
2023-03-05T10:08:17.662Z,22.34
2023-03-05T10:10:55.496Z,22.30
2023-03-05T10:13:34.826Z,22.33
2023-03-05T10:16:39.671Z,22.31
2023-03-05T10:19:12.797Z,22.34
2023-03-05T10:21:54.194Z,22.35
2023-03-05T10:24:55.395Z,22.35
2023-03-05T10:27:35.630Z,22.37
2023-03-05T10:30:38.196Z,22.35
2023-03-05T10:33:41.918Z,22.34
2023-03-05T10:36:47.788Z,22.34
2023-03-05T10:39:32.495Z,22.27
2023-03-05T10:42:14.493Z,22.25
2023-03-05T10:45:02.969Z,22.28
2023-03-05T10:47:38.764Z,22.25
2023-03-05T10:50:21.925Z,22.25
2023-03-05T10:53:16.692Z,22.35
2023-03-05T10:55:46.867Z,22.30
2023-03-05T10:58:19.037Z,22.27
2023-03-05T11:01:12.375Z,22.31
2023-03-05T11:03:49.980Z,22.37
2023-03-05T11:06:32.982Z,22.40
2023-03-05T11:09:33.284Z,22.51
2023-03-05T11:12:11.866Z,22.45
2023-03-05T11:14:48.785Z,22.55
2023-03-05T11:17:40.318Z,22.67
2023-03-05T11:20:33.726Z,22.76
2023-03-05T11:23:12.944Z,22.84
2023-03-05T11:26:02.339Z,23.12
2023-03-05T11:28:35.379Z,23.15
2023-03-05T11:31:11.341Z,23.10
2023-03-05T11:33:41.552Z,23.17
2023-03-05T11:36:25.909Z,23.05
2023-03-05T11:38:57.728Z,23.27
2023-03-05T11:41:35.963Z,23.26
2023-03-05T11:44:22.962Z,23.30
2023-03-05T11:46:57.039Z,23.46
2023-03-05T11:49:29.960Z,23.60
2023-03-05T11:52:27.997Z,23.70
2023-03-05T11:55:21.273Z,23.67
2023-03-05T11:58:13.972Z,23.64
2023-03-05T12:00:47.124Z,23.61
2023-03-05T12:03:23.436Z,23.70
2023-03-05T12:05:59.335Z,23.98
2023-03-05T12:08:35.988Z,24.28
2023-03-05T12:11:22.006Z,24.49
2023-03-05T12:14:15.280Z,24.14
2023-03-05T12:17:03.405Z,23.81
2023-03-05T12:19:42.758Z,23.70
2023-03-05T12:22:28.374Z,23.74
2023-03-05T12:25:50.627Z,23.74
2023-03-05T12:28:44.527Z,23.74
2023-03-05T12:31:35.787Z,23.75
2023-03-05T12:34:40.727Z,23.96
2023-03-05T12:37:36.326Z,23.96
2023-03-05T12:40:13.888Z,23.85
2023-03-05T12:42:52.896Z,23.91
2023-03-05T12:45:29.488Z,24.11
2023-03-05T12:47:59.518Z,24.40
2023-03-05T12:50:29.717Z,24.62
2023-03-05T12:53:19.495Z,24.89
2023-03-05T12:56:33.860Z,25.20
2023-03-05T12:59:05.746Z,24.69
2023-03-05T13:01:39.735Z,24.45
2023-03-05T13:04:18.101Z,24.32
2023-03-05T13:06:48.487Z,24.24
2023-03-05T13:09:31.047Z,24.15
2023-03-05T13:12:02.312Z,24.63
2023-03-05T13:14:35.319Z,24.99
2023-03-05T13:17:45.606Z,24.86
2023-03-05T13:20:43.747Z,25.23
2023-03-05T13:23:26.412Z,25.74
2023-03-05T13:26:03.323Z,26.06
2023-03-05T13:28:34.569Z,26.29
2023-03-05T13:31:13.895Z,25.69
2023-03-05T13:33:54.468Z,25.33
2023-03-05T13:36:27.397Z,25.14
2023-03-05T13:38:57.652Z,25.48
2023-03-05T13:41:29.077Z,25.54
2023-03-05T13:44:01.426Z,25.44
2023-03-05T13:46:33.139Z,25.30
2023-03-05T13:49:27.791Z,25.71
2023-03-05T13:52:01.196Z,26.09
2023-03-05T13:54:32.274Z,26.28
2023-03-05T13:57:06.388Z,26.50
2023-03-05T13:59:40.289Z,26.71
2023-03-05T14:02:20.680Z,26.87
2023-03-05T14:04:50.928Z,27.12
2023-03-05T14:07:25.573Z,26.94
2023-03-05T14:09:57.873Z,26.43
2023-03-05T14:12:31.887Z,26.26
2023-03-05T14:15:03.643Z,26.08
2023-03-05T14:17:44.646Z,25.81
2023-03-05T14:20:30.437Z,25.75
2023-03-05T14:23:03.390Z,25.71
2023-03-05T14:25:36.370Z,25.71
2023-03-05T14:28:29.869Z,25.69
2023-03-05T14:31:00.030Z,25.75
2023-03-05T14:33:34.864Z,26.03
2023-03-05T14:36:06.470Z,25.89
2023-03-05T14:38:36.764Z,25.77
2023-03-05T14:41:36.384Z,25.74
2023-03-05T14:44:18.666Z,25.99
2023-03-05T14:46:52.594Z,26.36
2023-03-05T14:49:22.621Z,26.44
2023-03-05T14:51:52.828Z,26.61
2023-03-05T14:54:27.403Z,26.65
2023-03-05T14:56:57.530Z,26.56
2023-03-05T14:59:27.139Z,26.42
2023-03-05T15:01:58.814Z,26.36
2023-03-05T15:04:28.881Z,26.22
2023-03-05T15:06:58.906Z,26.06
2023-03-05T15:09:29.091Z,25.92
2023-03-05T15:11:59.176Z,25.78
2023-03-05T15:14:29.057Z,25.85
2023-03-05T15:16:59.147Z,26.12
2023-03-05T15:19:29.319Z,26.35
2023-03-05T15:21:59.052Z,26.53
2023-03-05T15:24:29.245Z,26.63
2023-03-05T15:26:59.311Z,26.74
2023-03-05T15:29:29.387Z,26.71
2023-03-05T15:31:59.039Z,26.79
2023-03-05T15:34:30.105Z,26.74
2023-03-05T15:37:00.261Z,26.64
2023-03-05T15:39:30.177Z,26.79
2023-03-05T15:42:00.639Z,26.80
2023-03-05T15:44:30.813Z,26.76
2023-03-05T15:47:00.601Z,26.42
2023-03-05T15:49:30.494Z,26.23
2023-03-05T15:52:00.799Z,26.12
2023-03-05T15:54:31.376Z,25.93
2023-03-05T15:57:01.507Z,25.75
2023-03-05T15:59:31.072Z,26.03
2023-03-05T16:02:01.287Z,26.29
2023-03-05T16:04:31.487Z,27.25
2023-03-05T16:07:04.270Z,28.18
2023-03-05T16:09:43.102Z,27.92
2023-03-05T16:12:19.178Z,27.51
2023-03-05T16:14:51.672Z,27.82
2023-03-05T16:17:24.532Z,27.72
2023-03-05T16:19:57.095Z,27.53
2023-03-05T16:22:27.288Z,27.24
2023-03-05T16:24:57.985Z,26.81
2023-03-05T16:27:28.436Z,26.40
2023-03-05T16:29:59.243Z,26.15
2023-03-05T16:32:29.357Z,26.79
2023-03-05T16:34:59.431Z,27.46
2023-03-05T16:37:29.557Z,27.86
2023-03-05T16:40:02.919Z,28.03
2023-03-05T16:42:33.408Z,28.13
2023-03-05T16:45:05.057Z,28.60
2023-03-05T16:47:35.909Z,28.44
2023-03-05T16:50:06.943Z,28.27
2023-03-05T16:52:37.408Z,29.11
2023-03-05T16:55:08.556Z,28.79
2023-03-05T16:57:41.182Z,27.46
2023-03-05T17:00:12.858Z,26.37
2023-03-05T17:02:43.004Z,25.92
2023-03-05T17:05:13.248Z,25.86
2023-03-05T17:07:43.382Z,25.93
2023-03-05T17:10:14.041Z,26.53
2023-03-05T17:12:44.814Z,26.97
2023-03-05T17:15:15.824Z,27.39
2023-03-05T17:17:45.940Z,27.69
2023-03-05T17:20:16.081Z,27.97
2023-03-05T17:22:47.365Z,28.25
2023-03-05T17:25:18.450Z,28.51
2023-03-05T17:27:48.456Z,28.40
2023-03-05T17:30:18.718Z,28.74
2023-03-05T17:32:48.915Z,28.44
2023-03-05T17:35:38.611Z,28.91
2023-03-05T17:38:12.074Z,28.37
2023-03-05T17:40:42.547Z,27.83
2023-03-05T17:43:12.745Z,28.06
2023-03-05T17:45:43.298Z,28.13
2023-03-05T17:48:14.805Z,27.72
2023-03-05T17:50:46.219Z,28.06
2023-03-05T17:53:16.516Z,28.31
2023-03-05T17:55:46.711Z,28.12
2023-03-05T17:58:16.055Z,28.25
2023-03-05T18:00:46.113Z,28.21
2023-03-05T18:03:16.402Z,27.82
2023-03-05T18:05:46.709Z,27.69
2023-03-05T18:08:16.738Z,27.46
2023-03-05T18:10:46.717Z,27.35
2023-03-05T18:13:16.071Z,27.41
2023-03-05T18:15:48.864Z,27.42
2023-03-05T18:18:19.640Z,27.43
2023-03-05T18:20:50.755Z,27.82
2023-03-05T18:23:20.984Z,28.37
2023-03-05T18:25:51.132Z,28.41
2023-03-05T18:28:21.183Z,28.76
2023-03-05T18:30:51.105Z,29.11
2023-03-05T18:33:26.231Z,28.55
2023-03-05T18:35:56.478Z,28.20
2023-03-05T18:38:28.809Z,28.09
2023-03-05T18:41:03.026Z,28.21
2023-03-05T18:43:33.690Z,28.50
2023-03-05T18:46:06.170Z,28.78
2023-03-05T18:48:36.406Z,28.98
2023-03-05T18:51:06.817Z,29.03
2023-03-05T18:53:36.840Z,29.19
2023-03-05T18:56:07.062Z,29.19
2023-03-05T18:58:37.456Z,28.60
2023-03-05T19:01:08.518Z,28.00
2023-03-05T19:03:38.617Z,27.72
2023-03-05T19:06:09.185Z,27.85
2023-03-05T19:08:39.396Z,27.74
2023-03-05T19:11:21.494Z,27.78
2023-03-05T19:13:53.220Z,28.02
2023-03-05T19:16:27.842Z,27.86
2023-03-05T19:19:06.449Z,27.65
2023-03-05T19:21:36.664Z,28.09
2023-03-05T19:24:07.092Z,28.41
2023-03-05T19:26:37.232Z,28.64
2023-03-05T19:29:08.308Z,28.74
2023-03-05T19:31:38.896Z,27.96
2023-03-05T19:34:09.453Z,27.79
2023-03-05T19:36:40.244Z,27.46
2023-03-05T19:39:10.914Z,27.31
2023-03-05T19:41:42.391Z,27.05
2023-03-05T19:44:13.661Z,27.14
2023-03-05T19:46:44.710Z,27.93
2023-03-05T19:49:15.336Z,28.98
2023-03-05T19:51:46.427Z,28.95
2023-03-05T19:54:18.932Z,28.09
2023-03-05T19:56:51.811Z,28.74
2023-03-05T19:59:24.110Z,28.94
2023-03-05T20:01:54.885Z,27.88
2023-03-05T20:04:26.023Z,27.59
2023-03-05T20:06:56.204Z,27.65
2023-03-05T20:09:26.341Z,27.67
2023-03-05T20:11:58.921Z,27.41
2023-03-05T20:14:30.201Z,27.42
2023-03-05T20:17:00.376Z,27.56
2023-03-05T20:19:30.544Z,27.56
2023-03-05T20:22:00.779Z,27.25
2023-03-05T20:24:30.727Z,27.10
2023-03-05T20:27:01.406Z,27.05
2023-03-05T20:29:31.390Z,26.77
2023-03-05T20:32:01.006Z,26.65
2023-03-05T20:34:32.378Z,26.50
2023-03-05T20:37:02.881Z,26.28
2023-03-05T20:39:32.998Z,26.12
2023-03-05T20:42:03.080Z,25.92
2023-03-05T20:44:33.277Z,25.84
2023-03-05T20:47:44.330Z,25.68
2023-03-05T20:50:16.122Z,25.78
2023-03-05T20:52:46.292Z,26.47
2023-03-05T20:55:16.371Z,26.05
2023-03-05T20:57:46.703Z,26.08
2023-03-05T21:00:17.249Z,26.20
2023-03-05T21:02:47.422Z,26.42
2023-03-05T21:05:18.078Z,26.51
2023-03-05T21:07:48.542Z,26.86
2023-03-05T21:10:19.111Z,26.70
2023-03-05T21:12:50.971Z,26.54
2023-03-05T21:15:24.296Z,26.47
2023-03-05T21:17:54.823Z,26.39
2023-03-05T21:20:28.899Z,26.19
2023-03-05T21:23:04.270Z,26.23
2023-03-05T21:25:36.079Z,26.20
2023-03-05T21:28:09.520Z,26.10
2023-03-05T21:30:41.048Z,25.96
2023-03-05T21:33:31.516Z,25.85
2023-03-05T21:36:01.714Z,25.75
2023-03-05T21:38:32.060Z,25.68
2023-03-05T21:41:03.576Z,25.61
2023-03-05T21:43:34.013Z,25.44
2023-03-05T21:46:05.545Z,25.10
2023-03-05T21:48:37.225Z,24.97
2023-03-05T21:52:10.194Z,24.91
2023-03-05T21:54:41.255Z,24.93
2023-03-05T21:57:13.312Z,24.84
2023-03-05T21:59:44.120Z,24.76
2023-03-05T22:02:19.282Z,24.66
2023-03-05T22:04:50.025Z,24.65
2023-03-05T22:07:21.242Z,24.62
2023-03-05T22:09:56.733Z,24.60
2023-03-05T22:13:08.587Z,24.59
2023-03-05T22:15:53.007Z,24.59
2023-03-05T22:18:28.090Z,24.52
2023-03-05T22:20:59.708Z,24.48
2023-03-05T22:23:32.782Z,24.47
2023-03-05T22:26:08.546Z,24.40
2023-03-05T22:28:40.135Z,24.38
2023-03-05T22:31:11.515Z,24.39
2023-03-05T22:33:42.177Z,24.39
2023-03-05T22:36:13.541Z,24.28
2023-03-05T22:38:44.039Z,24.25
2023-03-05T22:41:17.151Z,24.28
2023-03-05T22:43:48.675Z,24.26
2023-03-05T22:46:21.851Z,24.24
2023-03-05T22:48:52.952Z,24.22
2023-03-05T22:51:23.378Z,24.29
2023-03-05T22:53:53.686Z,24.28
2023-03-05T22:56:23.853Z,24.26
2023-03-05T22:58:54.249Z,24.28
2023-03-05T23:01:25.176Z,24.29
2023-03-05T23:04:41.716Z,24.30
2023-03-05T23:07:11.770Z,24.32
2023-03-05T23:09:41.989Z,24.29
2023-03-05T23:12:13.237Z,24.35
2023-03-05T23:14:43.307Z,24.33
2023-03-05T23:17:13.353Z,24.28
2023-03-05T23:19:43.624Z,24.28
2023-03-05T23:22:15.055Z,24.24
2023-03-05T23:24:45.135Z,24.22
2023-03-05T23:27:18.375Z,24.24
2023-03-05T23:30:21.636Z,24.18
2023-03-05T23:32:54.937Z,24.18
2023-03-05T23:35:33.119Z,24.17
2023-03-05T23:38:06.332Z,24.17
2023-03-05T23:40:39.318Z,24.14
2023-03-05T23:43:09.703Z,24.15
2023-03-05T23:45:41.684Z,24.08
2023-03-05T23:48:12.838Z,24.11
2023-03-05T23:50:45.415Z,24.07
2023-03-05T23:53:24.474Z,24.08
2023-03-05T23:55:56.359Z,24.07
2023-03-05T23:58:43.682Z,24.02
